createdAt,value
2023-07-06T00:00:16.321Z,56.30
2023-07-06T00:02:44.021Z,56.30
2023-07-06T00:05:10.795Z,56.30
2023-07-06T00:07:37.470Z,56.20
2023-07-06T00:10:07.100Z,56.20
2023-07-06T00:12:35.455Z,56.10
2023-07-06T00:15:02.107Z,56.10
2023-07-06T00:17:28.859Z,56.10
2023-07-06T00:19:55.587Z,56.20
2023-07-06T00:22:22.340Z,56.30
2023-07-06T00:24:49.538Z,56.20
2023-07-06T00:27:16.508Z,56.20
2023-07-06T00:29:57.307Z,56.20
2023-07-06T00:32:29.862Z,56.20
2023-07-06T00:34:57.029Z,56.20
2023-07-06T00:37:24.512Z,56.20
2023-07-06T00:39:51.816Z,56.30
2023-07-06T00:42:21.122Z,56.30
2023-07-06T00:44:59.218Z,56.20
2023-07-06T00:47:34.512Z,56.20
2023-07-06T00:50:08.511Z,56.20
2023-07-06T00:52:40.843Z,56.20
2023-07-06T00:55:09.073Z,56.30
2023-07-06T00:57:39.597Z,56.30
2023-07-06T01:00:08.128Z,56.30
2023-07-06T01:02:40.020Z,56.20
2023-07-06T01:05:12.125Z,56.20
2023-07-06T01:07:41.928Z,56.20
2023-07-06T01:10:10.181Z,56.20
2023-07-06T01:12:37.343Z,56.70
2023-07-06T01:15:04.831Z,56.10
2023-07-06T01:17:54.719Z,56.10
2023-07-06T01:20:50.045Z,56.10
2023-07-06T01:23:45.474Z,56.10
2023-07-06T01:26:19.202Z,56.00
2023-07-06T01:28:46.515Z,56.10
2023-07-06T01:31:16.924Z,56.10
2023-07-06T01:33:50.214Z,56.10
2023-07-06T01:36:23.334Z,56.10
2023-07-06T01:39:09.939Z,56.00
2023-07-06T01:41:36.546Z,56.10
2023-07-06T01:44:05.416Z,56.10
2023-07-06T01:46:32.085Z,56.00
2023-07-06T01:48:58.774Z,56.00
2023-07-06T01:51:37.788Z,56.10
2023-07-06T01:54:10.675Z,56.00
2023-07-06T01:56:49.256Z,56.10
2023-07-06T01:59:20.695Z,56.00
2023-07-06T02:01:52.893Z,56.00
2023-07-06T02:04:21.449Z,56.00
2023-07-06T02:06:54.548Z,56.00
2023-07-06T02:09:21.272Z,56.00
2023-07-06T02:11:47.946Z,56.00
2023-07-06T02:14:14.586Z,56.00
2023-07-06T02:16:41.348Z,56.00
2023-07-06T02:19:08.072Z,55.90
2023-07-06T02:21:34.787Z,56.00
2023-07-06T02:24:01.461Z,55.90
2023-07-06T02:26:28.185Z,55.90
2023-07-06T02:28:54.841Z,55.90
2023-07-06T02:31:21.546Z,55.90
2023-07-06T02:33:48.292Z,55.90
2023-07-06T02:36:17.655Z,56.00
2023-07-06T02:38:44.309Z,55.90
2023-07-06T02:41:11.015Z,55.90
2023-07-06T02:43:37.682Z,55.90
2023-07-06T02:46:05.208Z,55.70
2023-07-06T02:48:31.958Z,55.90
2023-07-06T02:50:59.115Z,55.90
2023-07-06T02:53:25.771Z,55.80
2023-07-06T02:55:55.354Z,55.80
2023-07-06T02:58:22.357Z,55.80
2023-07-06T03:00:53.262Z,55.90
2023-07-06T03:03:19.925Z,55.80
2023-07-06T03:05:47.795Z,55.80
2023-07-06T03:08:14.755Z,55.80
2023-07-06T03:10:43.977Z,55.80
2023-07-06T03:13:11.637Z,55.90
2023-07-06T03:15:38.522Z,55.80
2023-07-06T03:18:05.414Z,55.80
2023-07-06T03:20:33.481Z,55.80
2023-07-06T03:23:00.142Z,55.80
2023-07-06T03:25:27.925Z,55.80
2023-07-06T03:27:55.409Z,55.80
2023-07-06T03:30:29.500Z,55.70
2023-07-06T03:32:56.723Z,55.70
2023-07-06T03:35:23.518Z,55.70
2023-07-06T03:37:50.238Z,55.60
2023-07-06T03:40:17.569Z,55.60
2023-07-06T03:42:46.465Z,55.70
2023-07-06T03:45:14.997Z,55.50
2023-07-06T03:47:46.706Z,55.60
2023-07-06T03:50:16.284Z,55.60
2023-07-06T03:52:43.496Z,55.60
2023-07-06T03:55:20.810Z,55.60
2023-07-06T03:58:02.834Z,55.60
2023-07-06T04:00:31.889Z,55.50
2023-07-06T04:03:07.923Z,55.40
2023-07-06T04:05:38.601Z,55.30
2023-07-06T04:08:11.201Z,55.30
2023-07-06T04:10:39.109Z,55.20
2023-07-06T04:13:06.106Z,55.20
2023-07-06T04:15:35.308Z,55.20
2023-07-06T04:18:04.392Z,55.10
2023-07-06T04:20:32.207Z,55.00
2023-07-06T04:22:59.791Z,55.30
2023-07-06T04:25:30.530Z,55.20
2023-07-06T04:28:00.003Z,55.20
2023-07-06T04:30:28.836Z,55.30
2023-07-06T04:32:55.588Z,55.30
2023-07-06T04:35:23.356Z,55.30
2023-07-06T04:37:51.816Z,55.30
2023-07-06T04:40:19.536Z,55.30
2023-07-06T04:42:48.398Z,55.30
2023-07-06T04:45:16.976Z,55.30
2023-07-06T04:47:45.518Z,55.40
2023-07-06T04:50:18.558Z,55.40
2023-07-06T04:52:46.842Z,55.30
2023-07-06T04:55:13.769Z,55.20
2023-07-06T04:57:40.572Z,54.80
2023-07-06T05:00:19.721Z,54.20
2023-07-06T05:02:47.289Z,53.90
2023-07-06T05:05:14.681Z,53.50
2023-07-06T05:07:42.754Z,53.50
2023-07-06T05:10:09.809Z,53.50
2023-07-06T05:12:36.785Z,53.30
2023-07-06T05:15:04.337Z,53.20
2023-07-06T05:17:31.038Z,53.00
2023-07-06T05:19:59.092Z,53.00
2023-07-06T05:22:26.425Z,53.30
2023-07-06T05:24:53.307Z,53.50
2023-07-06T05:27:20.498Z,53.50
2023-07-06T05:29:47.126Z,53.10
2023-07-06T05:32:13.752Z,53.70
2023-07-06T05:34:40.582Z,53.70
2023-07-06T05:37:07.294Z,53.90
2023-07-06T05:39:34.055Z,53.90
2023-07-06T05:42:00.707Z,54.10
2023-07-06T05:44:27.791Z,54.20
2023-07-06T05:46:54.488Z,54.30
2023-07-06T05:49:21.171Z,54.50
2023-07-06T05:51:47.812Z,54.50
2023-07-06T05:54:14.467Z,54.60
2023-07-06T05:56:42.536Z,54.60
2023-07-06T05:59:10.035Z,54.60
2023-07-06T06:01:37.551Z,54.80
2023-07-06T06:04:04.410Z,54.90
2023-07-06T06:06:47.656Z,54.00
2023-07-06T06:09:14.994Z,52.60
2023-07-06T06:11:41.904Z,53.50
2023-07-06T06:14:09.141Z,53.50
2023-07-06T06:16:36.157Z,52.40
2023-07-06T06:19:03.708Z,53.40
2023-07-06T06:21:31.432Z,53.50
2023-07-06T06:23:59.048Z,53.70
2023-07-06T06:26:27.361Z,54.10
2023-07-06T06:28:55.961Z,53.90
2023-07-06T06:31:22.678Z,54.10
2023-07-06T06:33:49.388Z,54.10
2023-07-06T06:36:18.418Z,54.50
2023-07-06T06:38:45.736Z,54.40
2023-07-06T06:41:13.560Z,54.40
2023-07-06T06:43:41.701Z,54.40
2023-07-06T06:46:13.557Z,55.00
2023-07-06T06:48:41.127Z,54.30
2023-07-06T06:51:10.434Z,54.80
2023-07-06T06:53:41.009Z,54.60
2023-07-06T06:56:10.659Z,54.60
2023-07-06T06:58:38.310Z,54.60
2023-07-06T07:01:07.718Z,54.70
2023-07-06T07:03:35.530Z,54.90
2023-07-06T07:06:04.506Z,54.80
2023-07-06T07:08:31.378Z,55.10
2023-07-06T07:11:07.395Z,55.00
2023-07-06T07:13:44.906Z,55.10
2023-07-06T07:16:12.569Z,55.40
2023-07-06T07:18:40.180Z,55.30
2023-07-06T07:21:08.519Z,55.00
2023-07-06T07:23:49.521Z,54.70
2023-07-06T07:26:21.609Z,54.90
2023-07-06T07:28:49.484Z,55.10
2023-07-06T07:31:18.997Z,55.10
2023-07-06T07:33:50.738Z,55.10
2023-07-06T07:36:19.444Z,54.90
2023-07-06T07:38:47.922Z,53.10
2023-07-06T07:41:17.661Z,53.30
2023-07-06T07:43:44.484Z,53.60
2023-07-06T07:46:12.795Z,53.50
2023-07-06T07:48:46.372Z,53.80
2023-07-06T07:51:17.481Z,54.40
2023-07-06T07:53:45.516Z,54.40
2023-07-06T07:56:16.830Z,54.60
2023-07-06T07:58:48.296Z,54.40
2023-07-06T08:01:23.643Z,54.40
2023-07-06T08:03:50.704Z,54.50
2023-07-06T08:06:19.788Z,54.50
2023-07-06T08:08:48.421Z,54.60
2023-07-06T08:11:21.556Z,54.60
2023-07-06T08:13:51.760Z,54.70
2023-07-06T08:16:20.907Z,54.80
2023-07-06T08:18:49.648Z,54.70
2023-07-06T08:21:37.952Z,54.80
2023-07-06T08:24:04.843Z,54.80
2023-07-06T08:26:32.508Z,54.90
2023-07-06T08:28:59.465Z,54.80
2023-07-06T08:31:27.968Z,54.90
2023-07-06T08:33:54.946Z,55.00
2023-07-06T08:36:21.966Z,55.00
2023-07-06T08:38:48.941Z,55.10
2023-07-06T08:41:36.077Z,55.10
2023-07-06T08:44:04.923Z,55.20
2023-07-06T08:46:36.077Z,55.20
2023-07-06T08:49:03.794Z,55.40
2023-07-06T08:51:37.072Z,55.30
2023-07-06T08:54:18.714Z,55.30
2023-07-06T08:56:46.948Z,55.50
2023-07-06T08:59:33.155Z,55.20
2023-07-06T09:02:09.032Z,55.10
2023-07-06T09:04:36.600Z,55.10
2023-07-06T09:07:03.569Z,55.20
2023-07-06T09:09:30.422Z,55.20
2023-07-06T09:11:59.718Z,55.30
2023-07-06T09:14:29.674Z,55.20
2023-07-06T09:16:57.723Z,53.20
2023-07-06T09:19:26.010Z,50.80
2023-07-06T09:21:59.330Z,50.50
2023-07-06T09:24:29.296Z,49.80
2023-07-06T09:27:02.367Z,50.30
2023-07-06T09:29:34.537Z,52.80
2023-07-06T09:32:13.239Z,52.60
2023-07-06T09:34:46.113Z,52.90
2023-07-06T09:37:14.719Z,53.10
2023-07-06T09:39:42.686Z,53.20
2023-07-06T09:42:15.211Z,53.40
2023-07-06T09:44:42.608Z,53.60
2023-07-06T09:47:13.440Z,53.60
2023-07-06T09:49:48.166Z,53.70
2023-07-06T09:52:17.006Z,53.80
2023-07-06T09:55:07.462Z,53.80
2023-07-06T09:57:36.477Z,53.80
2023-07-06T10:00:04.496Z,54.00
2023-07-06T10:02:59.880Z,53.90
2023-07-06T10:05:32.472Z,54.00
2023-07-06T10:08:07.642Z,54.00
2023-07-06T10:10:37.187Z,54.20
2023-07-06T10:13:22.624Z,54.10
2023-07-06T10:16:16.414Z,54.20
2023-07-06T10:18:57.477Z,54.20
2023-07-06T10:21:43.066Z,54.20
2023-07-06T10:24:33.173Z,54.30
2023-07-06T10:27:04.205Z,54.60
2023-07-06T10:29:39.109Z,54.70
2023-07-06T10:32:14.725Z,54.70
2023-07-06T10:34:59.794Z,54.70
2023-07-06T10:37:28.496Z,54.80
2023-07-06T10:40:22.398Z,55.00
2023-07-06T10:43:08.200Z,54.90
2023-07-06T10:45:35.848Z,55.00
2023-07-06T10:48:15.027Z,55.10
2023-07-06T10:50:52.183Z,55.20
2023-07-06T10:53:22.964Z,55.30
2023-07-06T10:56:20.725Z,55.20
2023-07-06T10:58:58.349Z,55.40
2023-07-06T11:01:31.865Z,55.30
2023-07-06T11:04:02.026Z,55.20
2023-07-06T11:06:42.027Z,55.30
2023-07-06T11:09:13.203Z,55.30
2023-07-06T11:11:49.166Z,55.50
2023-07-06T11:14:33.077Z,56.00
2023-07-06T11:17:22.598Z,55.90
2023-07-06T11:20:14.080Z,55.80
2023-07-06T11:22:45.395Z,55.60
2023-07-06T11:25:15.845Z,55.60
2023-07-06T11:27:46.391Z,56.00
2023-07-06T11:30:19.919Z,55.80
2023-07-06T11:33:25.040Z,55.80
2023-07-06T11:36:03.068Z,55.80
2023-07-06T11:38:58.157Z,55.70
2023-07-06T11:41:36.090Z,55.90
2023-07-06T11:44:25.149Z,56.00
2023-07-06T11:47:09.567Z,55.90
2023-07-06T11:49:49.858Z,54.90
2023-07-06T11:52:23.507Z,54.90
2023-07-06T11:55:06.500Z,54.90
2023-07-06T11:57:45.487Z,55.10
2023-07-06T12:00:17.078Z,55.20
2023-07-06T12:02:49.215Z,55.30
2023-07-06T12:05:26.967Z,55.30
2023-07-06T12:08:02.428Z,55.40
2023-07-06T12:10:35.850Z,55.50
2023-07-06T12:13:06.119Z,55.50
2023-07-06T12:15:33.030Z,55.50
2023-07-06T12:18:04.793Z,55.70
2023-07-06T12:20:33.114Z,55.50
2023-07-06T12:22:59.977Z,55.50
2023-07-06T12:25:28.912Z,55.50
2023-07-06T12:28:03.118Z,55.60
2023-07-06T12:30:34.749Z,55.50
2023-07-06T12:33:06.150Z,55.50
2023-07-06T12:35:34.871Z,55.40
2023-07-06T12:38:20.495Z,55.60
2023-07-06T12:40:48.121Z,55.50
2023-07-06T12:43:24.763Z,55.60
2023-07-06T12:45:54.114Z,55.60
2023-07-06T12:48:24.426Z,55.60
2023-07-06T12:50:59.274Z,55.60
2023-07-06T12:53:36.268Z,55.70
2023-07-06T12:56:22.269Z,55.70
2023-07-06T12:59:04.295Z,55.60
2023-07-06T13:01:47.561Z,55.60
2023-07-06T13:04:21.285Z,53.40
2023-07-06T13:06:59.277Z,55.60
2023-07-06T13:09:37.284Z,55.60
2023-07-06T13:12:11.172Z,55.50
2023-07-06T13:14:41.763Z,55.50
2023-07-06T13:17:15.219Z,55.60
2023-07-06T13:19:42.559Z,55.50
2023-07-06T13:22:12.974Z,55.50
2023-07-06T13:24:41.624Z,55.40
2023-07-06T13:27:14.098Z,55.50
2023-07-06T13:29:41.468Z,55.50
2023-07-06T13:32:19.075Z,55.40
2023-07-06T13:34:50.545Z,55.50
2023-07-06T13:37:30.050Z,55.50
2023-07-06T13:40:01.301Z,55.60
2023-07-06T13:42:29.883Z,55.60
2023-07-06T13:44:57.503Z,55.50
2023-07-06T13:47:24.271Z,55.40
2023-07-06T13:49:54.329Z,55.60
2023-07-06T13:52:21.875Z,55.60
2023-07-06T13:54:49.201Z,55.50
2023-07-06T13:57:15.940Z,55.50
2023-07-06T13:59:42.645Z,55.50
2023-07-06T14:02:14.260Z,55.50
2023-07-06T14:04:43.047Z,55.50
2023-07-06T14:07:10.379Z,55.50
2023-07-06T14:09:37.099Z,55.60
2023-07-06T14:12:06.258Z,55.60
2023-07-06T14:14:32.932Z,55.60
2023-07-06T14:16:59.842Z,55.60
2023-07-06T14:19:26.478Z,55.70
2023-07-06T14:21:53.134Z,55.70
2023-07-06T14:24:22.430Z,55.70
2023-07-06T14:26:49.141Z,55.70
2023-07-06T14:29:15.876Z,55.70
2023-07-06T14:31:42.590Z,55.60
2023-07-06T14:34:09.363Z,55.60
2023-07-06T14:36:36.204Z,55.70
2023-07-06T14:39:02.919Z,55.70
2023-07-06T14:41:30.094Z,55.60
2023-07-06T14:43:56.828Z,55.40
2023-07-06T14:46:23.578Z,55.50
2023-07-06T14:48:50.250Z,55.40
2023-07-06T14:51:19.394Z,55.40
2023-07-06T14:53:47.766Z,55.40
2023-07-06T14:56:17.687Z,55.40
2023-07-06T14:58:44.403Z,55.50
2023-07-06T15:01:11.509Z,55.40
2023-07-06T15:03:38.318Z,55.30
2023-07-06T15:06:06.332Z,55.30
2023-07-06T15:08:33.028Z,55.20
2023-07-06T15:10:59.752Z,55.10
2023-07-06T15:13:26.448Z,55.20
2023-07-06T15:15:53.161Z,55.20
2023-07-06T15:18:20.246Z,55.20
2023-07-06T15:21:19.491Z,55.10
2023-07-06T15:23:52.266Z,55.10
2023-07-06T15:26:19.076Z,55.20
2023-07-06T15:28:45.907Z,55.20
2023-07-06T15:31:12.614Z,55.00
2023-07-06T15:33:39.617Z,55.10
2023-07-06T15:36:06.401Z,55.10
2023-07-06T15:38:33.108Z,55.00
2023-07-06T15:40:59.935Z,54.80
2023-07-06T15:43:26.597Z,54.80
2023-07-06T15:45:53.309Z,54.50
2023-07-06T15:48:20.216Z,54.60
2023-07-06T15:50:46.959Z,54.70
2023-07-06T15:53:13.660Z,54.80
2023-07-06T15:55:40.746Z,55.20
2023-07-06T15:58:07.418Z,54.70
2023-07-06T16:00:34.576Z,54.80
2023-07-06T16:03:01.479Z,54.80
2023-07-06T16:05:28.441Z,54.80
2023-07-06T16:07:55.442Z,54.80
2023-07-06T16:10:22.127Z,54.70
2023-07-06T16:12:48.935Z,54.80
2023-07-06T16:15:15.818Z,54.80
2023-07-06T16:17:43.035Z,55.30
2023-07-06T16:20:10.314Z,54.80
2023-07-06T16:22:37.068Z,54.90
2023-07-06T16:25:03.884Z,54.90
2023-07-06T16:27:31.053Z,54.90
2023-07-06T16:29:57.684Z,54.60
2023-07-06T16:32:24.360Z,55.10
2023-07-06T16:34:51.040Z,55.10
2023-07-06T16:37:17.676Z,55.20
2023-07-06T16:39:44.326Z,55.10
2023-07-06T16:42:11.455Z,55.10
2023-07-06T16:44:38.218Z,55.20
2023-07-06T16:47:05.035Z,55.20
2023-07-06T16:49:32.032Z,54.60
2023-07-06T16:51:58.713Z,55.10
2023-07-06T16:54:25.340Z,55.10
2023-07-06T16:56:52.179Z,55.10
2023-07-06T16:59:18.961Z,55.20
2023-07-06T17:01:48.465Z,55.10
2023-07-06T17:04:15.644Z,55.20
2023-07-06T17:06:42.371Z,55.20
2023-07-06T17:09:09.016Z,55.40
2023-07-06T17:11:35.844Z,55.40
2023-07-06T17:14:02.954Z,55.50
2023-07-06T17:16:29.811Z,55.50
2023-07-06T17:18:56.508Z,55.60
2023-07-06T17:21:23.144Z,55.40
2023-07-06T17:23:49.927Z,55.50
2023-07-06T17:26:16.651Z,55.60
2023-07-06T17:28:43.418Z,55.00
2023-07-06T17:31:12.971Z,55.40
2023-07-06T17:33:40.365Z,55.50
2023-07-06T17:36:08.115Z,55.00
2023-07-06T17:38:35.781Z,55.50
2023-07-06T17:41:08.061Z,55.50
2023-07-06T17:43:35.767Z,55.50
2023-07-06T17:46:03.286Z,55.50
2023-07-06T17:48:30.227Z,55.50
2023-07-06T17:51:05.885Z,55.50
2023-07-06T17:53:33.060Z,55.70
2023-07-06T17:56:00.286Z,55.80
2023-07-06T17:58:27.410Z,55.70
2023-07-06T18:00:54.742Z,55.70
2023-07-06T18:03:22.605Z,55.80
2023-07-06T18:05:50.770Z,55.70
2023-07-06T18:08:17.995Z,55.80
2023-07-06T18:10:44.754Z,55.90
2023-07-06T18:13:11.516Z,55.90
2023-07-06T18:15:39.480Z,56.00
2023-07-06T18:18:06.316Z,55.90
2023-07-06T18:20:33.035Z,55.80
2023-07-06T18:23:00.573Z,55.90
2023-07-06T18:25:27.695Z,56.10
2023-07-06T18:27:54.648Z,56.00
2023-07-06T18:30:21.537Z,56.10
2023-07-06T18:32:48.858Z,56.20
2023-07-06T18:35:15.831Z,56.50
2023-07-06T18:37:42.547Z,56.60
2023-07-06T18:40:09.749Z,56.50
2023-07-06T18:42:36.412Z,56.50
2023-07-06T18:45:05.961Z,56.50
2023-07-06T18:47:32.726Z,56.50
2023-07-06T18:49:59.464Z,56.50
2023-07-06T18:52:30.033Z,56.50
2023-07-06T18:54:57.005Z,56.30
2023-07-06T18:57:25.766Z,56.40
2023-07-06T18:59:54.150Z,56.30
2023-07-06T19:02:21.337Z,56.30
2023-07-06T19:04:48.087Z,56.30
2023-07-06T19:07:15.094Z,56.30
2023-07-06T19:09:41.957Z,56.20
2023-07-06T19:12:09.109Z,56.50
2023-07-06T19:14:35.777Z,56.70
2023-07-06T19:17:02.624Z,56.50
2023-07-06T19:19:29.375Z,56.60
2023-07-06T19:21:56.084Z,56.60
2023-07-06T19:24:22.784Z,56.60
2023-07-06T19:26:49.818Z,56.60
2023-07-06T19:29:19.213Z,56.60
2023-07-06T19:31:45.860Z,56.70
2023-07-06T19:34:12.500Z,56.90
2023-07-06T19:36:39.178Z,56.90
2023-07-06T19:39:05.989Z,56.90
2023-07-06T19:41:32.657Z,56.90
2023-07-06T19:43:59.412Z,56.80
2023-07-06T19:48:54.775Z,56.30
2023-07-06T19:51:22.378Z,56.80
2023-07-06T19:53:49.659Z,56.80
2023-07-06T19:56:21.239Z,56.90
2023-07-06T19:58:48.334Z,56.80
2023-07-06T20:01:17.575Z,56.80
2023-07-06T20:03:44.647Z,56.90
2023-07-06T20:06:12.160Z,56.80
2023-07-06T20:08:38.919Z,56.80
2023-07-06T20:11:06.104Z,56.80
2023-07-06T20:13:34.712Z,56.70
2023-07-06T20:16:02.194Z,56.70
2023-07-06T20:18:29.163Z,56.70
2023-07-06T20:20:56.442Z,56.80
2023-07-06T20:23:23.335Z,56.70
2023-07-06T20:25:50.114Z,56.80
2023-07-06T20:28:16.855Z,56.70
2023-07-06T20:30:45.351Z,56.70
2023-07-06T20:33:12.505Z,56.70
2023-07-06T20:35:40.349Z,56.70
2023-07-06T20:38:10.941Z,56.60
2023-07-06T20:40:38.261Z,56.60
2023-07-06T20:43:05.705Z,56.80
2023-07-06T20:45:35.489Z,56.60
2023-07-06T20:48:03.088Z,56.70
2023-07-06T20:50:30.040Z,56.70
2023-07-06T20:52:57.835Z,56.60
2023-07-06T20:55:27.220Z,56.60
2023-07-06T20:57:54.293Z,56.70
2023-07-06T21:00:21.084Z,56.70
2023-07-06T21:02:47.876Z,57.30
2023-07-06T21:05:14.635Z,56.70
2023-07-06T21:07:41.719Z,56.80
2023-07-06T21:10:08.851Z,56.70
2023-07-06T21:12:35.719Z,56.70
2023-07-06T21:15:02.574Z,56.70
2023-07-06T21:17:29.238Z,56.70
2023-07-06T21:19:55.905Z,56.80
2023-07-06T21:22:22.549Z,56.70
2023-07-06T21:24:49.236Z,56.70
2023-07-06T21:27:15.952Z,56.80
2023-07-06T21:29:42.723Z,56.60
2023-07-06T21:32:09.973Z,56.70
2023-07-06T21:34:36.745Z,56.70
2023-07-06T21:37:03.569Z,56.60
2023-07-06T21:39:30.287Z,56.70
2023-07-06T21:41:57.053Z,56.80
2023-07-06T21:44:24.092Z,56.60
2023-07-06T21:46:50.733Z,56.60
2023-07-06T21:49:17.434Z,56.70
2023-07-06T21:51:44.246Z,56.60
2023-07-06T21:54:11.184Z,56.70
2023-07-06T21:56:38.150Z,56.60
2023-07-06T21:59:05.015Z,56.70
2023-07-06T22:01:31.863Z,56.60
2023-07-06T22:03:58.670Z,56.60
2023-07-06T22:06:25.589Z,56.70
2023-07-06T22:08:52.722Z,56.60
2023-07-06T22:11:28.942Z,56.60
2023-07-06T22:13:56.143Z,56.60
2023-07-06T22:16:23.630Z,56.60
2023-07-06T22:18:50.400Z,56.60
2023-07-06T22:21:19.306Z,56.70
2023-07-06T22:23:46.088Z,56.60
2023-07-06T22:26:13.551Z,58.70
2023-07-06T22:28:40.350Z,56.70
2023-07-06T22:31:10.155Z,56.60
2023-07-06T22:33:39.241Z,56.60
2023-07-06T22:36:10.739Z,56.60
2023-07-06T22:38:39.230Z,56.60
2023-07-06T22:41:06.273Z,56.60
2023-07-06T22:43:33.182Z,56.60
2023-07-06T22:46:00.020Z,56.60
2023-07-06T22:48:27.096Z,56.60
2023-07-06T22:50:54.090Z,56.50
2023-07-06T22:53:21.137Z,56.50
2023-07-06T22:55:51.642Z,56.50
2023-07-06T22:58:18.452Z,56.60
2023-07-06T23:00:47.604Z,56.60
2023-07-06T23:03:15.799Z,56.50
2023-07-06T23:05:42.841Z,56.40
2023-07-06T23:08:11.395Z,56.40
2023-07-06T23:10:42.148Z,56.40
2023-07-06T23:13:09.730Z,56.40
2023-07-06T23:15:36.615Z,56.40
2023-07-06T23:18:04.622Z,56.50
2023-07-06T23:20:31.331Z,56.40
2023-07-06T23:22:58.017Z,56.40
2023-07-06T23:25:24.693Z,56.40
2023-07-06T23:27:51.402Z,56.40
2023-07-06T23:30:20.234Z,56.40
2023-07-06T23:32:50.060Z,56.40
2023-07-06T23:35:20.811Z,56.40
2023-07-06T23:37:50.671Z,56.40
2023-07-06T23:40:22.335Z,56.40
2023-07-06T23:42:49.335Z,56.40
2023-07-06T23:45:16.248Z,56.40
2023-07-06T23:47:42.969Z,56.30
2023-07-06T23:50:10.532Z,56.30
2023-07-06T23:52:37.376Z,56.30
2023-07-06T23:55:04.337Z,56.30
2023-07-06T23:57:31.040Z,56.30
2023-07-06T23:59:57.717Z,56.40
